Terminal Aerodrome Forecast
Issued by NWS Wilmington, OH

Current Version | Previous Version | Graphics & Text | Print | Product List | Glossary On
Versions: 1 2 3 4 5 6 7 8 9 10 11 12 13 14 15 16 17 18 19 20 21 22 23 24
000
FTUS41 KILN 220100 AAA
TAFCVG
TAF AMD
KCVG 220151Z 2202/2306 24006KT P6SM VCSH SCT050 OVC080
     FM220600 26008KT P6SM -SHRA SCT012 OVC050
     FM221100 31012KT P6SM OVC020
     FM221400 33015G25KT P6SM SCT035
     FM221800 33017G27KT P6SM FEW035
     FM222300 33008KT P6SM SKC=

USA.gov is the U.S. government's official web portal to all federal, state and local government web resources and services.